createdAt,value
2023-03-06T00:01:05.139Z,100365.00
2023-03-06T00:03:33.877Z,100357.88
2023-03-06T00:06:01.636Z,100361.56
2023-03-06T00:08:29.909Z,100359.84
2023-03-06T00:10:57.549Z,100363.38
2023-03-06T00:13:26.885Z,100366.88
2023-03-06T00:15:54.058Z,100364.22
2023-03-06T00:18:21.192Z,100366.19
2023-03-06T00:20:48.410Z,100370.72
2023-03-06T00:23:15.796Z,100361.03
2023-03-06T00:25:45.153Z,100366.38
2023-03-06T00:28:14.964Z,100362.00
2023-03-06T00:30:42.845Z,100362.06
2023-03-06T00:33:10.969Z,100362.22
2023-03-06T00:35:41.684Z,100361.44
2023-03-06T00:38:12.148Z,100364.31
2023-03-06T00:40:39.623Z,100360.84
2023-03-06T00:43:06.665Z,100361.03
2023-03-06T00:45:33.848Z,100359.31
2023-03-06T00:48:01.401Z,100356.81
2023-03-06T00:50:28.453Z,100355.97
2023-03-06T00:52:55.436Z,100354.22
2023-03-06T00:55:25.050Z,100349.16
2023-03-06T00:57:52.115Z,100349.22
2023-03-06T01:00:20.058Z,100341.41
2023-03-06T01:02:50.972Z,100338.94
2023-03-06T01:05:18.180Z,100338.16
2023-03-06T01:07:45.139Z,100342.63
2023-03-06T01:10:12.967Z,100336.47
2023-03-06T01:12:41.171Z,100332.00
2023-03-06T01:15:09.224Z,100328.47
2023-03-06T01:17:36.314Z,100320.50
2023-03-06T01:20:04.843Z,100322.38
2023-03-06T01:22:31.934Z,100321.69
2023-03-06T01:25:00.025Z,100324.50
2023-03-06T01:27:27.141Z,100325.53
2023-03-06T01:29:54.159Z,100317.56
2023-03-06T01:32:22.130Z,100319.53
2023-03-06T01:34:50.276Z,100315.22
2023-03-06T01:37:17.695Z,100311.88
2023-03-06T01:39:44.792Z,100315.47
2023-03-06T01:42:12.297Z,100320.88
2023-03-06T01:45:05.526Z,100313.94
2023-03-06T01:47:36.522Z,100309.59
2023-03-06T01:50:10.539Z,100310.47
2023-03-06T01:52:54.837Z,100305.31
2023-03-06T01:55:35.375Z,100309.06
2023-03-06T01:58:11.360Z,100308.22
2023-03-06T02:00:39.449Z,100303.81
2023-03-06T02:03:15.150Z,100296.78
2023-03-06T02:05:44.133Z,100297.81
2023-03-06T02:08:15.580Z,100296.16
2023-03-06T02:10:58.752Z,100289.06
2023-03-06T02:13:25.937Z,100286.50
2023-03-06T02:15:52.997Z,100289.06
2023-03-06T02:18:20.318Z,100289.06
2023-03-06T02:20:53.659Z,100291.72
2023-03-06T02:23:57.687Z,100282.97
2023-03-06T02:26:28.165Z,100282.28
2023-03-06T02:28:57.550Z,100285.00
2023-03-06T02:31:30.286Z,100278.78
2023-03-06T02:34:16.320Z,100280.66
2023-03-06T02:36:48.805Z,100277.19
2023-03-06T02:39:19.679Z,100277.34
2023-03-06T02:41:49.833Z,100276.66
2023-03-06T02:44:18.245Z,100266.97
2023-03-06T02:46:45.368Z,100265.50
2023-03-06T02:49:13.004Z,100260.44
2023-03-06T02:51:40.574Z,100249.03
2023-03-06T02:54:07.996Z,100258.97
2023-03-06T02:56:35.317Z,100258.09
2023-03-06T02:59:03.216Z,100261.63
2023-03-06T03:01:31.183Z,100256.41
2023-03-06T03:03:58.206Z,100249.44
2023-03-06T03:06:25.321Z,100258.25
2023-03-06T03:08:53.192Z,100264.38
2023-03-06T03:11:20.667Z,100263.41
2023-03-06T03:13:47.690Z,100259.75
2023-03-06T03:16:20.459Z,100257.78
2023-03-06T03:18:48.204Z,100257.63
2023-03-06T03:21:18.693Z,100257.63
2023-03-06T03:23:47.426Z,100256.84
2023-03-06T03:26:22.595Z,100251.53
2023-03-06T03:29:00.755Z,100249.88
2023-03-06T03:31:27.937Z,100262.31
2023-03-06T03:33:55.285Z,100256.25
2023-03-06T03:36:23.155Z,100258.91
2023-03-06T03:38:50.592Z,100261.72
2023-03-06T03:41:17.825Z,100252.09
2023-03-06T03:43:45.257Z,100252.16
2023-03-06T03:46:15.041Z,100247.78
2023-03-06T03:48:42.926Z,100249.59
2023-03-06T03:51:13.749Z,100246.25
2023-03-06T03:53:46.028Z,100248.22
2023-03-06T03:56:16.193Z,100252.56
2023-03-06T03:58:53.214Z,100245.56
2023-03-06T04:01:21.361Z,100242.97
2023-03-06T04:03:48.565Z,100239.38
2023-03-06T04:06:17.884Z,100239.38
2023-03-06T04:08:45.430Z,100239.38
2023-03-06T04:11:12.476Z,100229.69
2023-03-06T04:13:40.024Z,100227.97
2023-03-06T04:16:07.838Z,100230.00
2023-03-06T04:18:37.394Z,100230.16
2023-03-06T04:21:06.283Z,100222.19
2023-03-06T04:23:34.502Z,100219.69
2023-03-06T04:26:02.044Z,100219.69
2023-03-06T04:28:29.439Z,100214.38
2023-03-06T04:30:57.958Z,100210.03
2023-03-06T04:33:25.365Z,100217.97
2023-03-06T04:35:52.646Z,100219.88
2023-03-06T04:38:24.889Z,100212.06
2023-03-06T04:40:51.964Z,100206.75
2023-03-06T04:43:19.504Z,100213.78
2023-03-06T04:45:46.613Z,100222.69
2023-03-06T04:48:17.228Z,100220.78
2023-03-06T04:50:45.110Z,100219.09
2023-03-06T04:53:12.430Z,100208.47
2023-03-06T04:55:39.485Z,100220.03
2023-03-06T04:58:06.565Z,100221.09
2023-03-06T05:00:33.900Z,100215.03
2023-03-06T05:03:02.096Z,100222.06
2023-03-06T05:05:29.749Z,100214.00
2023-03-06T05:07:57.407Z,100213.94
2023-03-06T05:10:24.731Z,100214.72
2023-03-06T05:12:51.962Z,100211.91
2023-03-06T05:15:19.220Z,100209.06
2023-03-06T05:17:47.759Z,100212.53
2023-03-06T05:20:16.706Z,100209.88
2023-03-06T05:22:44.511Z,100202.69
2023-03-06T05:25:12.638Z,100212.34
2023-03-06T05:27:39.944Z,100208.84
2023-03-06T05:30:08.505Z,100214.22
2023-03-06T05:32:36.260Z,100209.00
2023-03-06T05:35:05.069Z,100204.56
2023-03-06T05:37:33.511Z,100210.72
2023-03-06T05:40:00.742Z,100210.66
2023-03-06T05:42:31.246Z,100214.06
2023-03-06T05:44:58.338Z,100210.50
2023-03-06T05:47:25.560Z,100212.09
2023-03-06T05:49:52.764Z,100212.91
2023-03-06T05:52:19.866Z,100214.53
2023-03-06T05:54:51.859Z,100208.13
2023-03-06T05:57:21.570Z,100213.38
2023-03-06T05:59:50.124Z,100211.56
2023-03-06T06:02:19.626Z,100203.59
2023-03-06T06:04:47.360Z,100208.91
2023-03-06T06:07:16.421Z,100210.72
2023-03-06T06:09:45.776Z,100209.81
2023-03-06T06:12:14.314Z,100208.97
2023-03-06T06:14:41.310Z,100211.72
2023-03-06T06:17:08.533Z,100207.31
2023-03-06T06:19:35.809Z,100215.28
2023-03-06T06:22:03.958Z,100214.38
2023-03-06T06:24:32.461Z,100216.09
2023-03-06T06:27:03.637Z,100215.13
2023-03-06T06:29:31.714Z,100216.72
2023-03-06T06:31:59.055Z,100220.13
2023-03-06T06:34:27.076Z,100213.91
2023-03-06T06:36:55.051Z,100216.47
2023-03-06T06:39:23.770Z,100212.78
2023-03-06T06:42:09.538Z,100221.56
2023-03-06T06:44:40.234Z,100223.16
2023-03-06T06:47:22.430Z,100225.59
2023-03-06T06:49:55.742Z,100218.38
2023-03-06T06:52:25.502Z,100223.47
2023-03-06T06:54:53.901Z,100224.16
2023-03-06T06:57:22.162Z,100227.41
2023-03-06T06:59:51.270Z,100228.03
2023-03-06T07:02:19.820Z,100226.00
2023-03-06T07:05:02.344Z,100223.06
2023-03-06T07:07:31.717Z,100226.34
2023-03-06T07:09:59.126Z,100227.81
2023-03-06T07:12:26.278Z,100220.47
2023-03-06T07:14:53.367Z,100228.16
2023-03-06T07:17:20.539Z,100238.47
2023-03-06T07:19:48.352Z,100237.44
2023-03-06T07:22:15.580Z,100236.31
2023-03-06T07:24:42.751Z,100237.00
2023-03-06T07:27:09.813Z,100243.00
2023-03-06T07:29:37.087Z,100237.53
2023-03-06T07:32:04.396Z,100235.66
2023-03-06T07:34:31.914Z,100237.09
2023-03-06T07:36:59.057Z,100239.50
2023-03-06T07:39:28.225Z,100242.75
2023-03-06T07:41:55.287Z,100239.94
2023-03-06T07:44:23.009Z,100247.63
2023-03-06T07:46:50.284Z,100259.81
2023-03-06T07:49:18.263Z,100252.44
2023-03-06T07:51:45.485Z,100248.75
2023-03-06T07:54:12.599Z,100250.19
2023-03-06T07:56:39.968Z,100251.75
2023-03-06T07:59:07.119Z,100249.75
2023-03-06T08:01:34.388Z,100248.53
2023-03-06T08:04:02.222Z,100241.06
2023-03-06T08:06:29.482Z,100250.56
2023-03-06T08:08:57.260Z,100254.69
2023-03-06T08:11:30.278Z,100242.78
2023-03-06T08:14:01.296Z,100244.34
2023-03-06T08:16:30.675Z,100243.78
2023-03-06T08:18:58.235Z,100243.41
2023-03-06T08:21:28.164Z,100248.13
2023-03-06T08:23:56.641Z,100244.69
2023-03-06T08:26:29.752Z,100246.91
2023-03-06T08:28:59.834Z,100245.28
2023-03-06T08:31:36.394Z,100246.97
2023-03-06T08:34:07.398Z,100249.75
2023-03-06T08:36:34.795Z,100241.81
2023-03-06T08:39:02.435Z,100246.16
2023-03-06T08:41:30.314Z,100244.81
2023-03-06T08:43:57.727Z,100245.78
2023-03-06T08:46:27.245Z,100248.06
2023-03-06T08:48:59.483Z,100259.28
2023-03-06T08:51:29.048Z,100251.28
2023-03-06T08:53:59.959Z,100254.50
2023-03-06T08:56:33.046Z,100254.16
2023-03-06T08:59:04.081Z,100255.09
2023-03-06T09:01:37.879Z,100254.06
2023-03-06T09:04:10.588Z,100253.69
2023-03-06T09:06:42.573Z,100248.13
2023-03-06T09:09:10.939Z,100245.72
2023-03-06T09:11:38.868Z,100245.13
2023-03-06T09:14:06.509Z,100241.94
2023-03-06T09:16:33.967Z,100242.38
2023-03-06T09:19:01.401Z,100237.69
2023-03-06T09:21:28.821Z,100234.81
2023-03-06T09:23:56.272Z,100234.16
2023-03-06T09:26:32.808Z,100237.84
2023-03-06T09:29:07.877Z,100232.25
2023-03-06T09:31:35.043Z,100231.75
2023-03-06T09:34:02.232Z,100229.31
2023-03-06T09:36:29.405Z,100226.13
2023-03-06T09:38:57.076Z,100229.13
2023-03-06T09:41:29.437Z,100236.09
2023-03-06T09:44:05.105Z,100239.88
2023-03-06T09:47:20.182Z,100229.81
2023-03-06T09:50:47.038Z,100235.38
2023-03-06T09:54:03.011Z,100231.84
2023-03-06T09:56:34.525Z,100226.28
2023-03-06T09:59:22.910Z,100220.94
2023-03-06T10:02:09.470Z,100230.44
2023-03-06T10:04:44.710Z,100221.47
2023-03-06T10:07:25.588Z,100219.31
2023-03-06T10:10:04.217Z,100217.69
2023-03-06T10:12:42.585Z,100222.59
2023-03-06T10:15:26.058Z,100222.38
2023-03-06T10:17:53.562Z,100222.16
2023-03-06T10:20:41.612Z,100219.81
2023-03-06T10:23:52.790Z,100205.88
2023-03-06T10:26:28.013Z,100214.50
2023-03-06T10:30:01.307Z,100203.97
2023-03-06T10:32:55.290Z,100201.25
2023-03-06T10:35:30.644Z,100202.00
2023-03-06T10:38:16.311Z,100200.66
2023-03-06T10:41:01.113Z,100201.91
2023-03-06T10:43:28.556Z,100194.16
2023-03-06T10:45:55.862Z,100201.53
2023-03-06T10:48:27.096Z,100200.09
2023-03-06T10:51:20.981Z,100199.50
2023-03-06T10:53:54.956Z,100191.94
2023-03-06T10:56:35.486Z,100193.59
2023-03-06T10:59:19.941Z,100199.09
2023-03-06T11:01:57.214Z,100194.44
2023-03-06T11:04:36.786Z,100202.81
2023-03-06T11:07:20.692Z,100194.81
2023-03-06T11:10:19.601Z,100182.03
2023-03-06T11:13:07.696Z,100183.72
2023-03-06T11:15:34.989Z,100174.69
2023-03-06T11:18:23.872Z,100178.13
2023-03-06T11:20:54.681Z,100182.03
2023-03-06T11:23:39.669Z,100179.56
2023-03-06T11:26:15.946Z,100173.97
2023-03-06T11:29:03.291Z,100175.69
2023-03-06T11:32:10.213Z,100158.63
2023-03-06T11:34:53.811Z,100158.13
2023-03-06T11:37:57.508Z,100155.25
2023-03-06T11:40:34.067Z,100150.50
2023-03-06T11:43:30.134Z,100155.16
2023-03-06T11:46:11.458Z,100143.31
2023-03-06T11:48:54.172Z,100144.53
2023-03-06T11:51:34.944Z,100137.59
2023-03-06T11:54:03.091Z,100143.66
2023-03-06T11:56:50.645Z,100141.25
2023-03-06T11:59:46.132Z,100136.72
2023-03-06T12:02:28.631Z,100130.88
2023-03-06T12:05:53.355Z,100127.81
2023-03-06T12:08:46.469Z,100123.59
2023-03-06T12:11:35.933Z,100125.66
2023-03-06T12:14:16.395Z,100118.06
2023-03-06T12:17:09.293Z,100117.00
2023-03-06T12:20:07.277Z,100114.56
2023-03-06T12:22:53.402Z,100114.78
2023-03-06T12:25:49.288Z,100115.41
2023-03-06T12:28:36.756Z,100112.47
2023-03-06T12:32:01.832Z,100108.81
2023-03-06T12:34:51.182Z,100100.63
2023-03-06T12:37:29.220Z,100101.34
2023-03-06T12:40:23.944Z,100076.34
2023-03-06T12:43:22.872Z,100090.81
2023-03-06T12:45:56.100Z,100083.50
2023-03-06T12:48:29.605Z,100081.28
2023-03-06T12:50:57.880Z,100070.56
2023-03-06T12:53:31.352Z,100074.16
2023-03-06T12:56:02.279Z,100064.53
2023-03-06T12:58:30.050Z,100068.03
2023-03-06T13:01:09.909Z,100060.31
2023-03-06T13:04:01.456Z,100058.50
2023-03-06T13:06:54.970Z,100055.47
2023-03-06T13:09:40.405Z,100047.09
2023-03-06T13:12:19.908Z,100055.88
2023-03-06T13:14:54.062Z,100041.66
2023-03-06T13:17:24.267Z,100044.25
2023-03-06T13:20:20.487Z,100047.72
2023-03-06T13:22:48.187Z,100040.97
2023-03-06T13:25:21.064Z,100044.78
2023-03-06T13:27:54.414Z,100044.63
2023-03-06T13:30:28.434Z,100045.50
2023-03-06T13:32:56.558Z,100039.41
2023-03-06T13:35:52.649Z,100036.88
2023-03-06T13:39:06.266Z,100033.63
2023-03-06T13:41:37.615Z,100028.56
2023-03-06T13:44:28.270Z,100032.78
2023-03-06T13:47:02.004Z,100024.72
2023-03-06T13:49:30.056Z,100019.25
2023-03-06T13:52:23.346Z,100014.47
2023-03-06T13:55:24.173Z,100014.63
2023-03-06T13:58:41.592Z,100001.00
2023-03-06T14:01:59.373Z,100000.72
2023-03-06T14:04:38.688Z,99994.72
2023-03-06T14:07:19.754Z,100001.94
2023-03-06T14:10:25.323Z,99988.22
2023-03-06T14:12:55.412Z,99990.94
2023-03-06T14:15:55.659Z,99986.44
2023-03-06T14:18:27.119Z,99976.78
2023-03-06T14:21:00.728Z,99973.94
2023-03-06T14:23:32.266Z,99977.63
2023-03-06T14:26:05.919Z,99975.78
2023-03-06T14:28:34.885Z,99972.09
2023-03-06T14:31:05.035Z,99972.09
2023-03-06T14:33:34.960Z,99965.03
2023-03-06T14:36:08.310Z,99965.78
2023-03-06T14:38:45.762Z,99959.84
2023-03-06T14:41:14.147Z,99952.38
2023-03-06T14:43:41.401Z,99945.72
2023-03-06T14:46:21.164Z,99950.13
2023-03-06T14:48:49.823Z,99945.75
2023-03-06T14:51:23.597Z,99947.44
2023-03-06T14:53:54.216Z,99949.19
2023-03-06T14:56:27.569Z,99944.69
2023-03-06T14:59:06.491Z,99945.59
2023-03-06T15:01:48.656Z,99942.31
2023-03-06T15:04:27.974Z,99941.03
2023-03-06T15:06:58.185Z,99943.41
2023-03-06T15:09:25.377Z,99938.16
2023-03-06T15:12:01.780Z,99935.47
2023-03-06T15:14:31.070Z,99935.19
2023-03-06T15:17:17.686Z,99928.13
2023-03-06T15:19:48.806Z,99930.25
2023-03-06T15:22:41.751Z,99926.44
2023-03-06T15:25:32.158Z,99931.78
2023-03-06T15:28:22.158Z,99930.91
2023-03-06T15:31:21.417Z,99931.91
2023-03-06T15:34:23.455Z,99928.75
2023-03-06T15:36:55.921Z,99924.38
2023-03-06T15:39:41.145Z,99937.69
2023-03-06T15:42:26.643Z,99935.00
2023-03-06T15:45:05.767Z,99925.78
2023-03-06T15:47:32.902Z,99932.44
2023-03-06T15:50:00.085Z,99926.34
2023-03-06T15:52:27.235Z,99921.13
2023-03-06T15:54:54.363Z,99922.09
2023-03-06T15:57:26.680Z,99926.34
2023-03-06T15:59:54.485Z,99919.28
2023-03-06T16:02:24.348Z,99920.38
2023-03-06T16:04:52.526Z,99922.09
2023-03-06T16:07:20.730Z,99913.91
2023-03-06T16:09:48.758Z,99918.16
2023-03-06T16:12:21.109Z,99914.75
2023-03-06T16:14:51.497Z,99920.38
2023-03-06T16:17:18.769Z,99920.81
2023-03-06T16:19:46.027Z,99919.13
2023-03-06T16:22:13.890Z,99920.81
2023-03-06T16:24:41.980Z,99929.13
2023-03-06T16:27:20.597Z,99925.88
2023-03-06T16:29:47.924Z,99917.50
2023-03-06T16:32:15.141Z,99928.34
2023-03-06T16:34:42.341Z,99922.28
2023-03-06T16:37:13.203Z,99923.41
2023-03-06T16:39:40.321Z,99923.66
2023-03-06T16:42:07.622Z,99923.09
2023-03-06T16:44:35.181Z,99926.88
2023-03-06T16:47:02.279Z,99919.94
2023-03-06T16:49:29.508Z,99932.66
2023-03-06T16:51:56.645Z,99925.72
2023-03-06T16:54:26.794Z,99929.66
2023-03-06T16:56:54.685Z,99932.44
2023-03-06T16:59:22.060Z,99930.28
2023-03-06T17:01:49.497Z,99930.53
2023-03-06T17:04:16.754Z,99931.81
2023-03-06T17:06:43.908Z,99934.88
2023-03-06T17:09:11.760Z,99936.94
2023-03-06T17:11:39.353Z,99934.66
2023-03-06T17:14:07.076Z,99935.16
2023-03-06T17:16:36.576Z,99928.75
2023-03-06T17:19:03.757Z,99935.47
2023-03-06T17:21:31.064Z,99935.16
2023-03-06T17:23:58.387Z,99933.72
2023-03-06T17:26:26.633Z,99926.16
2023-03-06T17:28:55.926Z,99938.25
2023-03-06T17:31:27.838Z,99932.53
2023-03-06T17:34:00.358Z,99943.78
2023-03-06T17:36:31.993Z,99939.06
2023-03-06T17:39:02.168Z,99945.03
2023-03-06T17:41:29.990Z,99942.97
2023-03-06T17:43:58.468Z,99950.53
2023-03-06T17:46:26.115Z,99950.91
2023-03-06T17:48:53.572Z,99953.97
2023-03-06T17:51:21.086Z,99954.31
2023-03-06T17:53:49.416Z,99969.94
2023-03-06T17:56:16.658Z,99965.91
2023-03-06T17:58:44.054Z,99970.78
2023-03-06T18:01:18.368Z,99966.63
2023-03-06T18:03:49.285Z,99964.41
2023-03-06T18:06:18.469Z,99971.97
2023-03-06T18:08:46.122Z,99966.84
2023-03-06T18:11:14.434Z,99974.38
2023-03-06T18:13:44.139Z,99979.25
2023-03-06T18:16:14.997Z,99975.09
2023-03-06T18:18:42.141Z,99982.66
2023-03-06T18:21:12.795Z,99977.78
2023-03-06T18:23:40.902Z,99979.94
2023-03-06T18:26:20.964Z,99979.47
2023-03-06T18:28:53.054Z,99982.63
2023-03-06T18:31:25.499Z,99990.03
2023-03-06T18:33:55.642Z,99980.63
2023-03-06T18:36:27.026Z,99985.47
2023-03-06T18:38:54.692Z,99983.25
2023-03-06T18:41:22.866Z,99989.94
2023-03-06T18:43:55.924Z,99990.41
2023-03-06T18:46:24.120Z,99985.38
2023-03-06T18:48:51.457Z,99982.09
2023-03-06T18:51:20.237Z,99977.81
2023-03-06T18:53:47.974Z,99988.78
2023-03-06T18:56:22.876Z,99998.72
2023-03-06T18:58:50.537Z,99988.47
2023-03-06T19:01:18.598Z,99987.09
2023-03-06T19:03:46.697Z,99986.59
2023-03-06T19:06:17.246Z,99983.41
2023-03-06T19:08:44.932Z,99988.97
2023-03-06T19:11:16.649Z,99990.19
2023-03-06T19:13:44.537Z,99987.72
2023-03-06T19:16:21.373Z,99986.97
2023-03-06T19:18:48.849Z,99981.84
2023-03-06T19:21:19.727Z,99983.78
2023-03-06T19:23:47.728Z,99995.53
2023-03-06T19:26:16.546Z,99992.22
2023-03-06T19:28:43.649Z,99996.19
2023-03-06T19:31:20.147Z,99988.53
2023-03-06T19:33:49.463Z,99988.22
2023-03-06T19:36:18.688Z,99991.31
2023-03-06T19:38:50.434Z,99996.16
2023-03-06T19:41:17.562Z,99993.69
2023-03-06T19:43:44.611Z,99987.50
2023-03-06T19:46:13.929Z,99984.22
2023-03-06T19:48:42.621Z,99987.09
2023-03-06T19:51:10.583Z,99990.81
2023-03-06T19:53:41.833Z,99986.56
2023-03-06T19:56:14.997Z,99996.59
2023-03-06T19:58:42.683Z,99993.09
2023-03-06T20:01:16.635Z,99994.28
2023-03-06T20:03:44.776Z,99999.69
2023-03-06T20:06:18.761Z,99999.06
2023-03-06T20:08:47.800Z,99996.81
2023-03-06T20:11:25.333Z,99991.06
2023-03-06T20:13:53.323Z,99992.25
2023-03-06T20:16:20.703Z,99990.63
2023-03-06T20:18:47.745Z,100004.31
2023-03-06T20:21:15.837Z,100012.41
2023-03-06T20:23:43.309Z,100003.00
2023-03-06T20:26:14.371Z,100004.19
2023-03-06T20:28:42.685Z,99999.16
2023-03-06T20:31:20.095Z,100010.91
2023-03-06T20:33:50.680Z,100011.88
2023-03-06T20:36:28.998Z,100006.94
2023-03-06T20:39:00.183Z,100007.88
2023-03-06T20:41:30.307Z,100008.00
2023-03-06T20:44:03.014Z,100014.31
2023-03-06T20:46:30.656Z,100010.03
2023-03-06T20:48:58.349Z,100008.31
2023-03-06T20:51:31.805Z,100015.66
2023-03-06T20:54:01.388Z,100010.53
2023-03-06T20:56:32.168Z,100019.41
2023-03-06T20:58:59.832Z,100018.66
2023-03-06T21:01:33.267Z,100021.44
2023-03-06T21:04:04.339Z,100025.16
2023-03-06T21:06:32.302Z,100019.06
2023-03-06T21:09:01.460Z,100019.91
2023-03-06T21:11:28.854Z,100020.03
2023-03-06T21:13:57.140Z,100020.03
2023-03-06T21:16:26.814Z,100025.00
2023-03-06T21:18:55.631Z,100034.69
2023-03-06T21:21:25.979Z,100034.41
2023-03-06T21:23:53.165Z,100028.69
2023-03-06T21:26:23.462Z,100028.03
2023-03-06T21:28:50.990Z,100029.00
2023-03-06T21:31:21.748Z,100027.28
2023-03-06T21:33:50.403Z,100027.38
2023-03-06T21:36:21.488Z,100029.28
2023-03-06T21:38:49.994Z,100029.41
2023-03-06T21:41:26.796Z,100031.28
2023-03-06T21:43:58.445Z,100031.50
2023-03-06T21:46:27.703Z,100029.78
2023-03-06T21:48:55.709Z,100027.25
2023-03-06T21:51:24.164Z,100029.91
2023-03-06T21:53:52.917Z,100029.91
2023-03-06T21:56:25.044Z,100029.97
2023-03-06T21:58:55.854Z,100039.03
2023-03-06T22:01:29.169Z,100034.09
2023-03-06T22:04:00.526Z,100036.94
2023-03-06T22:06:31.190Z,100033.81
2023-03-06T22:09:00.308Z,100034.13
2023-03-06T22:11:31.479Z,100036.78
2023-03-06T22:13:58.947Z,100032.50
2023-03-06T22:16:26.169Z,100037.16
2023-03-06T22:18:53.255Z,100033.00
2023-03-06T22:21:22.617Z,100039.56
2023-03-06T22:23:59.966Z,100046.03
2023-03-06T22:26:28.818Z,100027.56
2023-03-06T22:29:00.325Z,100036.59
2023-03-06T22:31:29.075Z,100039.38
2023-03-06T22:33:59.209Z,100034.06
2023-03-06T22:36:28.615Z,100031.56
2023-03-06T22:38:59.865Z,100034.50
2023-03-06T22:41:28.833Z,100040.88
2023-03-06T22:44:01.687Z,100041.09
2023-03-06T22:46:29.241Z,100035.28
2023-03-06T22:49:02.182Z,100044.19
2023-03-06T22:51:29.910Z,100037.19
2023-03-06T22:53:57.145Z,100050.56
2023-03-06T22:56:25.642Z,100038.31
2023-03-06T22:58:52.864Z,100040.31
2023-03-06T23:01:25.320Z,100031.56
2023-03-06T23:03:56.613Z,100041.34
2023-03-06T23:06:32.568Z,100037.72
2023-03-06T23:09:14.666Z,100039.91
2023-03-06T23:12:00.649Z,100036.66
2023-03-06T23:14:49.813Z,100042.16
2023-03-06T23:17:35.592Z,100045.78
2023-03-06T23:20:22.134Z,100047.69
2023-03-06T23:23:07.990Z,100038.84
2023-03-06T23:25:44.554Z,100039.00
2023-03-06T23:28:12.444Z,100043.66
2023-03-06T23:30:40.189Z,100050.03
2023-03-06T23:33:08.460Z,100056.28
2023-03-06T23:35:37.864Z,100054.47
2023-03-06T23:38:05.442Z,100058.22
2023-03-06T23:40:34.577Z,100047.75
2023-03-06T23:43:02.473Z,100055.91
2023-03-06T23:45:29.991Z,100050.78
2023-03-06T23:47:57.253Z,100058.81
2023-03-06T23:50:29.328Z,100058.75
2023-03-06T23:52:56.515Z,100064.91
2023-03-06T23:55:23.642Z,100060.44
2023-03-06T23:57:50.715Z,100055.91
